Green River, Wyoming
Current Conditions -  °F | °C
As of 4:54 PM on Tuesday 25 Nov 2014 (Local Time) from KRKS Reporting Station
Overcast Overcast  
Wind Chill: 22°   Ceiling: 2700
Heat Index: 35°   Visibility: 10mi
Dew Point: 27°   Wind: 29mph
Humidity: 72%   Direction: 260°W
Pressure: 30.09"   Gusts: 36mph
Location:  41.53°N, 109.46°W
Report Text: KRKS 252354Z AUTO 26025G31KT 10SM OVC027 02/M03 A3009 RMK AO2 PK WND 26035/2315 SLP214 T00171028 10028 20006 52007
Loading
Personal Weather Stations






























Interactive Weather Map New forecast layout! Learn more

10-Day Weather Forecast

Advertisements
Track Severe Weather on mobile